Time;durP1;ratioP1;P1;durP2;ratioP2;P2;SDS_P1;SDS_P2;PMS_P1;PMS_P2;Temp;Humidity;BMP_temperature;BMP_pressure;BME280_temperature;BME280_humidity;BME280_pressure;Samples;Min_cycle;Max_cycle;Signal;HPM_P1;HPM_P2
2023/07/08 00:00:23;;;;;;;2.30;2.20;;;17.80;99.90;;;;;;5109619;27;20509;-92
2023/07/08 00:02:54;;;;;;;2.20;2.10;;;17.80;99.90;;;;;;5089200;27;20098;-91
2023/07/08 00:05:25;;;;;;;2.10;2.00;;;17.80;99.90;;;;;;5100394;27;20038;-90
2023/07/08 00:07:50;;;;;;;1.90;1.80;;;17.80;99.90;;;;;;5100120;27;20047;-90
2023/07/08 00:10:23;;;;;;;1.90;1.80;;;17.70;99.90;;;;;;5099455;27;20042;-92
2023/07/08 00:12:51;;;;;;;1.90;1.80;;;17.60;99.90;;;;;;5090336;27;20040;-88
2023/07/08 00:15:22;;;;;;;1.90;1.80;;;17.60;99.90;;;;;;5093268;27;20046;-92
2023/07/08 00:17:48;;;;;;;1.80;1.70;;;17.70;99.90;;;;;;5122324;27;20070;-89
2023/07/08 00:20:25;;;;;;;1.80;1.70;;;17.60;99.90;;;;;;5090484;27;20488;-93
2023/07/08 00:22:51;;;;;;;1.80;1.70;;;17.60;99.90;;;;;;5091644;27;20046;-91
2023/07/08 00:25:19;;;;;;;1.70;1.60;;;17.60;99.90;;;;;;5091363;27;20040;-88
2023/07/08 00:27:47;;;;;;;1.73;1.63;;;17.40;99.90;;;;;;5096048;27;20039;-88
2023/07/08 00:30:26;;;;;;;1.70;1.60;;;17.50;99.90;;;;;;5096368;27;20060;-87
2023/07/08 00:32:56;;;;;;;1.60;1.50;;;17.40;99.90;;;;;;5088515;27;20042;-88
2023/07/08 00:35:33;;;;;;;1.70;1.60;;;17.30;99.90;;;;;;5088673;27;20076;-91
2023/07/08 00:38:02;;;;;;;1.70;1.60;;;17.40;99.90;;;;;;5114889;27;20062;-93
2023/07/08 00:40:30;;;;;;;1.70;1.60;;;17.40;99.90;;;;;;5092248;27;20066;-93
2023/07/08 00:43:05;;;;;;;1.70;1.60;;;17.40;99.90;;;;;;5110997;27;20046;-95
2023/07/08 00:45:51;;;;;;;1.60;1.50;;;17.30;99.90;;;;;;5108025;27;20070;-90
2023/07/08 00:48:32;;;;;;;1.50;1.40;;;17.50;99.90;;;;;;5092686;27;20047;-92
2023/07/08 00:50:58;;;;;;;1.35;1.35;;;17.40;99.90;;;;;;5112475;27;20051;-94
2023/07/08 00:53:28;;;;;;;1.50;1.40;;;17.30;99.90;;;;;;5112990;27;20055;-91
2023/07/08 00:56:00;;;;;;;1.50;1.40;;;17.20;99.90;;;;;;5109463;27;20046;-93
2023/07/08 00:58:33;;;;;;;1.50;1.40;;;17.20;99.90;;;;;;5108086;27;20043;-93
2023/07/08 01:01:00;;;;;;;1.38;1.35;;;17.20;99.90;;;;;;5095780;27;20063;-93
2023/07/08 01:03:28;;;;;;;1.30;1.30;;;17.30;99.90;;;;;;5108279;27;20528;-92
2023/07/08 01:05:59;;;;;;;1.30;1.30;;;17.10;99.90;;;;;;5096909;27;20111;-94
2023/07/08 01:08:28;;;;;;;1.30;1.30;;;17.10;99.90;;;;;;5098731;27;20075;-93
2023/07/08 01:11:02;;;;;;;1.20;1.20;;;17.10;99.90;;;;;;5097675;27;20047;-94
2023/07/08 01:13:35;;;;;;;1.20;1.20;;;17.10;99.90;;;;;;5098021;27;20062;-94
2023/07/08 01:16:12;;;;;;;1.20;1.20;;;17.00;99.90;;;;;;5094556;27;20070;-95
2023/07/08 01:18:39;;;;;;;1.52;1.42;;;17.00;99.90;;;;;;5105429;27;20066;-91
2023/07/08 01:21:27;;;;;;;1.20;1.20;;;17.00;99.90;;;;;;5086366;27;20050;-90
2023/07/08 01:23:53;;;;;;;1.20;1.20;;;17.00;99.90;;;;;;5117704;27;20093;-92
2023/07/08 01:26:19;;;;;;;1.10;1.10;;;16.90;99.90;;;;;;5114880;27;20473;-93
2023/07/08 01:28:51;;;;;;;1.10;1.10;;;17.00;99.90;;;;;;5117141;27;20066;-93
2023/07/08 01:31:26;;;;;;;1.10;1.10;;;17.00;99.90;;;;;;5095693;27;20271;-95
2023/07/08 01:33:57;;;;;;;1.17;1.17;;;16.90;99.90;;;;;;5086489;27;20039;-95
2023/07/08 01:36:26;;;;;;;1.10;1.10;;;16.80;99.90;;;;;;5091627;27;20454;-93
2023/07/08 01:39:02;;;;;;;1.15;1.15;;;16.80;99.90;;;;;;5094047;27;20670;-94
2023/07/08 01:41:28;;;;;;;1.17;1.17;;;16.70;99.90;;;;;;5092557;27;20179;-92
2023/07/08 01:43:54;;;;;;;1.17;1.17;;;16.60;99.90;;;;;;5114244;27;20084;-91
2023/07/08 01:46:26;;;;;;;1.13;1.13;;;16.60;99.90;;;;;;5091816;27;20128;-94
2023/07/08 01:49:02;;;;;;;1.17;1.17;;;16.50;99.90;;;;;;5106277;27;20476;-92
2023/07/08 01:51:30;;;;;;;1.20;1.20;;;16.50;99.90;;;;;;5104163;27;20074;-95
2023/07/08 01:53:56;;;;;;;1.20;1.20;;;16.40;99.90;;;;;;5094238;27;20043;-94
2023/07/08 01:56:22;;;;;;;1.15;1.15;;;16.40;99.90;;;;;;5095063;27;20046;-92
2023/07/08 01:58:48;;;;;;;1.20;1.20;;;16.40;99.90;;;;;;5093389;27;20065;-95
2023/07/08 02:01:13;;;;;;;1.23;1.23;;;16.40;99.90;;;;;;5099726;27;20054;-91
2023/07/08 02:03:39;;;;;;;1.42;1.38;;;16.40;99.90;;;;;;5102734;27;20069;-92
2023/07/08 02:06:05;;;;;;;1.33;1.33;;;16.50;99.90;;;;;;5105671;27;20523;-93
2023/07/08 02:08:31;;;;;;;1.35;1.33;;;16.30;99.90;;;;;;5106301;27;20099;-90
2023/07/08 02:10:58;;;;;;;1.60;1.50;;;16.30;99.90;;;;;;5109502;27;20043;-92
2023/07/08 02:13:24;;;;;;;1.60;1.50;;;16.30;99.90;;;;;;5089091;27;20111;-93
2023/07/08 02:15:51;;;;;;;1.60;1.50;;;16.30;99.90;;;;;;5090171;27;20050;-94
2023/07/08 02:18:18;;;;;;;1.65;1.55;;;16.20;99.90;;;;;;5105707;27;20573;-91
2023/07/08 02:20:45;;;;;;;1.65;1.55;;;16.20;99.90;;;;;;5113743;27;20050;-93
2023/07/08 02:23:14;;;;;;;1.80;1.70;;;16.20;99.90;;;;;;5097528;27;20622;-94
2023/07/08 02:25:53;;;;;;;1.85;1.75;;;16.20;99.90;;;;;;5093715;27;20035;-95
2023/07/08 02:28:19;;;;;;;1.80;1.70;;;16.10;99.90;;;;;;5091828;27;20050;-91
2023/07/08 02:30:48;;;;;;;1.92;1.83;;;16.10;99.90;;;;;;5088587;27;20043;-92
2023/07/08 02:33:17;;;;;;;2.00;1.90;;;16.00;99.90;;;;;;5114439;27;20046;-91
2023/07/08 02:35:45;;;;;;;2.00;1.90;;;16.10;99.90;;;;;;5113294;27;20118;-93
2023/07/08 02:38:11;;;;;;;2.10;2.00;;;16.10;99.90;;;;;;5090024;27;20043;-92
2023/07/08 02:40:37;;;;;;;2.20;2.10;;;16.00;99.90;;;;;;5104262;27;20069;-92
2023/07/08 02:43:05;;;;;;;2.35;2.25;;;16.00;99.90;;;;;;5108098;27;20100;-93
2023/07/08 02:45:30;;;;;;;2.28;2.17;;;16.10;99.90;;;;;;5110107;27;20541;-92
2023/07/08 02:47:56;;;;;;;2.47;2.38;;;16.00;99.90;;;;;;5085260;27;20068;-94
2023/07/08 02:50:22;;;;;;;2.40;2.30;;;16.00;99.90;;;;;;5095022;27;20042;-92
2023/07/08 02:52:47;;;;;;;2.42;2.33;;;16.00;99.90;;;;;;5085014;27;20084;-94
2023/07/08 02:55:13;;;;;;;2.50;2.40;;;16.00;99.90;;;;;;5111138;27;20108;-91
2023/07/08 02:57:39;;;;;;;2.50;2.40;;;16.00;99.90;;;;;;5091297;27;20501;-92
2023/07/08 03:00:06;;;;;;;2.53;2.42;;;16.00;99.90;;;;;;5097860;27;20042;-94
2023/07/08 03:02:32;;;;;;;2.55;2.45;;;16.00;99.90;;;;;;5099851;27;20050;-95
2023/07/08 03:04:58;;;;;;;2.55;2.45;;;15.90;99.90;;;;;;5099174;27;20040;-90
2023/07/08 03:07:25;;;;;;;2.50;2.40;;;15.90;99.90;;;;;;5097394;27;20050;-89
2023/07/08 03:09:51;;;;;;;2.53;2.42;;;15.90;99.90;;;;;;5102701;27;20172;-91
2023/07/08 03:12:16;;;;;;;2.40;2.30;;;15.90;99.90;;;;;;5109141;27;20074;-91
2023/07/08 03:14:45;;;;;;;2.35;2.25;;;16.00;99.90;;;;;;5125338;27;20084;-93
2023/07/08 03:17:11;;;;;;;2.40;2.30;;;15.90;99.90;;;;;;5095538;27;20082;-89
2023/07/08 03:19:37;;;;;;;2.30;2.20;;;16.00;99.90;;;;;;5100211;27;20062;-90
2023/07/08 03:22:07;;;;;;;2.47;2.38;;;15.90;99.90;;;;;;5094699;27;20046;-93
2023/07/08 03:24:33;;;;;;;2.30;2.20;;;15.90;99.90;;;;;;5085955;27;20073;-94
2023/07/08 03:27:04;;;;;;;2.33;2.22;;;15.90;99.90;;;;;;5100057;27;20112;-93
2023/07/08 03:29:31;;;;;;;2.30;2.20;;;15.90;99.90;;;;;;5093635;27;20133;-92
2023/07/08 03:31:56;;;;;;;2.30;2.20;;;15.90;99.90;;;;;;5108828;27;20043;-91
2023/07/08 03:34:22;;;;;;;2.17;2.08;;;15.80;99.90;;;;;;5093842;27;20527;-94
2023/07/08 03:36:53;;;;;;;2.20;2.10;;;15.90;99.90;;;;;;5090313;27;20035;-94
2023/07/08 03:39:21;;;;;;;2.10;2.00;;;15.90;99.90;;;;;;5109098;27;20051;-92
2023/07/08 03:41:49;;;;;;;2.00;1.90;;;16.00;99.90;;;;;;5095307;27;20395;-91
2023/07/08 03:44:17;;;;;;;2.08;1.98;;;16.00;99.90;;;;;;5113439;27;20047;-93
2023/07/08 03:46:51;;;;;;;1.90;1.80;;;16.00;99.90;;;;;;5088749;27;20046;-92
2023/07/08 03:49:24;;;;;;;1.95;1.85;;;16.00;99.90;;;;;;5100083;27;20050;-92
2023/07/08 03:51:53;;;;;;;2.00;1.90;;;15.90;99.90;;;;;;5096169;27;20046;-93
2023/07/08 03:54:21;;;;;;;1.90;1.80;;;16.00;99.90;;;;;;5094609;27;20042;-93
2023/07/08 03:56:47;;;;;;;1.90;1.80;;;15.90;99.90;;;;;;5088833;27;20092;-93
2023/07/08 03:59:12;;;;;;;2.00;1.90;;;16.00;99.90;;;;;;5103986;27;20075;-91
2023/07/08 04:01:40;;;;;;;1.90;1.80;;;15.90;99.90;;;;;;5109142;27;20047;-93
2023/07/08 04:04:08;;;;;;;1.88;1.77;;;15.90;99.90;;;;;;5095348;27;20057;-93
2023/07/08 04:06:40;;;;;;;1.70;1.60;;;15.90;99.90;;;;;;5097060;27;20039;-95
2023/07/08 04:09:06;;;;;;;1.70;1.60;;;16.00;99.90;;;;;;5095218;27;20043;-94
2023/07/08 04:11:32;;;;;;;1.50;1.40;;;16.00;99.90;;;;;;5107382;27;20039;-93
2023/07/08 04:13:58;;;;;;;1.60;1.50;;;16.00;99.90;;;;;;5103485;27;20066;-94
2023/07/08 04:16:31;;;;;;;1.58;1.48;;;16.00;99.90;;;;;;5106566;27;20051;-91
2023/07/08 04:18:57;;;;;;;1.48;1.40;;;16.10;99.90;;;;;;5113369;27;20051;-93
2023/07/08 04:21:26;;;;;;;1.50;1.40;;;16.20;99.90;;;;;;5118730;27;20038;-87
2023/07/08 04:23:52;;;;;;;1.30;1.30;;;16.30;99.90;;;;;;5110662;27;20039;-86
2023/07/08 04:26:18;;;;;;;1.30;1.30;;;16.30;99.90;;;;;;5108083;27;20042;-93
2023/07/08 04:28:45;;;;;;;1.42;1.38;;;16.30;99.90;;;;;;5111426;27;20054;-92
2023/07/08 04:31:10;;;;;;;1.90;1.80;;;16.30;99.90;;;;;;5097054;27;20081;-95
2023/07/08 04:33:37;;;;;;;1.88;1.77;;;16.30;99.90;;;;;;5102147;27;20468;-95
2023/07/08 04:36:02;;;;;;;1.88;1.77;;;16.40;99.90;;;;;;5112752;27;20043;-88
2023/07/08 04:38:28;;;;;;;1.90;1.80;;;16.40;99.90;;;;;;5103691;27;20103;-86
2023/07/08 04:40:54;;;;;;;1.80;1.70;;;16.50;99.90;;;;;;5120212;27;20436;-90
2023/07/08 04:43:21;;;;;;;2.00;1.90;;;16.60;99.90;;;;;;5117343;27;20110;-91
2023/07/08 04:45:53;;;;;;;2.35;2.25;;;16.70;99.90;;;;;;5091527;27;20101;-91
2023/07/08 04:48:21;;;;;;;2.45;2.35;;;16.80;99.90;;;;;;5093378;27;20126;-87
2023/07/08 04:50:49;;;;;;;1.55;1.45;;;16.80;99.90;;;;;;5110421;27;20050;-93
2023/07/08 04:53:20;;;;;;;1.05;1.05;;;18.40;99.90;;;;;;5097865;27;20043;-94
2023/07/08 04:55:53;;;;;;;0.60;0.60;;;19.70;99.90;;;;;;5094865;27;20576;-91
2023/07/08 04:58:19;;;;;;;0.70;0.70;;;20.70;99.90;;;;;;5096201;27;20441;-93
2023/07/08 05:00:44;;;;;;;0.70;0.70;;;20.60;99.90;;;;;;5089842;27;20040;-93
2023/07/08 05:03:12;;;;;;;1.00;1.00;;;21.20;99.90;;;;;;5110641;27;20050;-95
2023/07/08 05:05:37;;;;;;;0.80;0.80;;;21.80;99.90;;;;;;5098429;27;20042;-90
2023/07/08 05:08:04;;;;;;;1.30;1.30;;;22.00;99.90;;;;;;5105974;27;20047;-89
2023/07/08 05:10:32;;;;;;;1.48;1.40;;;21.70;99.90;;;;;;5113103;27;20059;-92
2023/07/08 05:12:58;;;;;;;1.38;1.35;;;21.20;99.90;;;;;;5088908;27;20035;-94
2023/07/08 05:15:24;;;;;;;1.38;1.38;;;22.10;99.90;;;;;;5091628;27;20575;-93
2023/07/08 05:17:51;;;;;;;1.30;1.30;;;22.60;99.90;;;;;;5096101;27;20043;-91
2023/07/08 05:20:18;;;;;;;1.45;1.35;;;22.70;99.90;;;;;;5095655;27;20054;-93
2023/07/08 05:22:44;;;;;;;1.30;1.30;;;22.60;99.90;;;;;;5105695;27;20096;-93
2023/07/08 05:25:11;;;;;;;1.27;1.27;;;22.90;99.90;;;;;;5091696;27;20051;-93
2023/07/08 05:27:37;;;;;;;1.00;1.00;;;22.40;99.90;;;;;;5107612;27;20040;-92
2023/07/08 05:30:32;;;;;;;1.30;1.30;;;23.60;99.90;;;;;;5115590;27;20674;-94
2023/07/08 05:33:01;;;;;;;1.30;1.30;;;24.20;99.90;;;;;;5097626;27;20052;-93
2023/07/08 05:35:27;;;;;;;1.20;1.20;;;23.50;99.90;;;;;;5086127;27;20047;-91
2023/07/08 05:37:52;;;;;;;1.30;1.30;;;23.90;99.90;;;;;;5117423;27;20047;-92
2023/07/08 05:40:20;;;;;;;1.30;1.30;;;24.30;99.90;;;;;;5089535;27;20044;-93
2023/07/08 05:42:46;;;;;;;1.60;1.50;;;24.80;99.90;;;;;;5102579;27;20582;-84
2023/07/08 05:45:13;;;;;;;2.10;2.00;;;24.30;99.90;;;;;;5104983;27;20051;-88
2023/07/08 05:47:39;;;;;;;2.20;2.10;;;23.80;99.90;;;;;;5108477;27;20054;-89
2023/07/08 05:50:05;;;;;;;2.30;2.20;;;24.40;99.90;;;;;;5096440;27;20043;-94
2023/07/08 05:52:31;;;;;;;2.28;2.17;;;22.20;99.90;;;;;;5119149;27;20058;-93
2023/07/08 05:54:56;;;;;;;1.75;1.65;;;21.70;99.90;;;;;;5092069;27;20038;-92
2023/07/08 05:57:32;;;;;;;1.55;1.45;;;21.10;99.90;;;;;;5106936;27;20039;-93
2023/07/08 06:00:04;;;;;;;1.63;1.52;;;20.80;99.90;;;;;;5092983;27;20036;-92
2023/07/08 06:02:29;;;;;;;1.17;1.17;;;20.60;99.90;;;;;;5107787;27;20054;-92
2023/07/08 06:04:55;;;;;;;1.10;1.10;;;21.20;99.90;;;;;;5100098;27;20043;-93
2023/07/08 06:07:41;;;;;;;1.10;1.10;;;21.50;99.90;;;;;;5086249;27;20039;-95
2023/07/08 06:10:07;;;;;;;1.10;1.10;;;21.00;99.90;;;;;;5085408;27;20050;-93
2023/07/08 06:12:33;;;;;;;1.00;1.00;;;21.30;99.90;;;;;;5094348;27;20046;-92
2023/07/08 06:14:59;;;;;;;1.20;1.20;;;21.00;99.90;;;;;;5094629;27;20121;-90
2023/07/08 06:17:25;;;;;;;1.00;1.00;;;20.90;99.90;;;;;;5110750;27;20555;-90
2023/07/08 06:19:53;;;;;;;0.90;0.90;;;21.20;99.90;;;;;;5104257;27;20039;-93
2023/07/08 06:22:20;;;;;;;0.90;0.90;;;21.80;99.90;;;;;;5095934;27;20038;-91
2023/07/08 06:24:47;;;;;;;0.80;0.80;;;21.50;99.90;;;;;;5115470;27;20396;-91
2023/07/08 06:27:13;;;;;;;0.70;0.70;;;21.70;99.90;;;;;;5088370;27;20043;-91
2023/07/08 06:29:38;;;;;;;0.90;0.90;;;21.60;99.90;;;;;;5112892;27;20042;-90
2023/07/08 06:32:05;;;;;;;0.90;0.90;;;21.40;99.90;;;;;;5108146;27;20051;-92
2023/07/08 06:34:30;;;;;;;0.80;0.80;;;21.60;99.90;;;;;;5088422;27;20410;-88
2023/07/08 06:36:59;;;;;;;0.70;0.70;;;21.60;99.90;;;;;;5114397;27;20562;-95
2023/07/08 06:39:25;;;;;;;0.85;0.85;;;22.10;99.90;;;;;;5088216;27;20138;-94
2023/07/08 06:41:54;;;;;;;0.70;0.70;;;21.80;99.90;;;;;;5097332;27;20125;-93
2023/07/08 06:44:22;;;;;;;0.80;0.80;;;22.30;99.90;;;;;;5109144;27;20395;-91
2023/07/08 06:46:50;;;;;;;0.80;0.80;;;22.30;99.90;;;;;;5116227;27;20035;-95
2023/07/08 06:49:17;;;;;;;0.80;0.80;;;22.30;99.90;;;;;;5091687;27;20060;-93
2023/07/08 06:51:44;;;;;;;0.90;0.90;;;22.60;99.90;;;;;;5104021;27;20092;-90
2023/07/08 06:54:11;;;;;;;1.00;1.00;;;22.10;99.90;;;;;;5105737;27;20040;-90
2023/07/08 06:56:41;;;;;;;0.80;0.80;;;22.00;99.90;;;;;;5089863;27;20506;-86
2023/07/08 06:59:08;;;;;;;1.00;1.00;;;22.80;99.90;;;;;;5107780;27;20047;-95
2023/07/08 07:01:34;;;;;;;0.95;0.95;;;22.70;99.90;;;;;;5099022;27;20043;-90
2023/07/08 07:04:00;;;;;;;1.17;1.17;;;22.60;99.90;;;;;;5088472;27;20050;-93
2023/07/08 07:06:26;;;;;;;1.10;1.10;;;22.40;99.90;;;;;;5101502;27;20178;-93
2023/07/08 07:08:52;;;;;;;1.10;1.10;;;22.70;99.90;;;;;;5096585;27;20130;-93
2023/07/08 07:11:19;;;;;;;1.20;1.20;;;22.50;99.90;;;;;;5095233;27;20121;-92
2023/07/08 07:13:45;;;;;;;1.10;1.10;;;22.50;99.90;;;;;;5099025;27;20511;-91
2023/07/08 07:16:14;;;;;;;0.90;0.90;;;22.80;99.90;;;;;;5109876;27;20073;-96
2023/07/08 07:18:39;;;;;;;1.02;1.02;;;24.00;99.90;;;;;;5104741;27;20077;-88
2023/07/08 07:21:05;;;;;;;1.08;1.08;;;23.10;99.90;;;;;;5102141;27;20063;-91
2023/07/08 07:23:31;;;;;;;1.00;1.00;;;23.20;99.90;;;;;;5089226;27;20035;-93
2023/07/08 07:25:57;;;;;;;1.00;1.00;;;23.60;99.90;;;;;;5109096;27;20050;-93
2023/07/08 07:28:23;;;;;;;1.25;1.10;;;24.20;99.90;;;;;;5090118;27;20044;-93
2023/07/08 07:31:05;;;;;;;1.10;1.10;;;24.20;99.90;;;;;;5087109;27;20122;-94
2023/07/08 07:33:31;;;;;;;0.80;0.80;;;24.10;99.90;;;;;;5107538;27;20124;-91
2023/07/08 07:35:59;;;;;;;0.70;0.70;;;23.50;99.90;;;;;;5088420;27;20477;-93
2023/07/08 07:38:28;;;;;;;1.10;1.10;;;24.10;99.90;;;;;;5091898;27;20054;-95
2023/07/08 07:40:55;;;;;;;0.40;0.40;;;24.30;99.90;;;;;;5115782;27;20050;-87
2023/07/08 07:43:21;;;;;;;1.00;1.00;;;24.40;99.90;;;;;;5107942;27;20082;-90
2023/07/08 07:45:53;;;;;;;1.10;1.10;;;24.00;99.90;;;;;;5097087;27;20078;-91
2023/07/08 07:48:20;;;;;;;0.40;0.40;;;24.30;99.90;;;;;;5113232;27;20074;-93
2023/07/08 07:50:55;;;;;;;0.85;0.85;;;24.40;99.90;;;;;;5094375;27;20373;-93
2023/07/08 07:53:29;;;;;;;1.20;1.20;;;24.30;99.90;;;;;;5094869;27;20078;-95
2023/07/08 07:56:00;;;;;;;0.85;0.85;;;24.70;99.90;;;;;;5095729;27;20036;-92
2023/07/08 07:58:26;;;;;;;0.65;0.65;;;24.40;99.90;;;;;;5114206;27;20051;-90
2023/07/08 08:00:58;;;;;;;0.30;0.30;;;24.00;99.90;;;;;;5112767;27;21077;-94
2023/07/08 08:03:24;;;;;;;0.77;0.77;;;24.30;99.90;;;;;;5112139;27;20054;-92
2023/07/08 08:05:50;;;;;;;0.38;0.38;;;24.00;99.90;;;;;;5113635;27;20038;-91
2023/07/08 08:08:17;;;;;;;0.50;0.50;;;24.00;99.90;;;;;;5097876;27;20173;-94
2023/07/08 08:10:43;;;;;;;1.15;1.15;;;23.90;99.90;;;;;;5091223;27;20178;-91
2023/07/08 08:13:12;;;;;;;0.40;0.40;;;24.30;99.90;;;;;;5090872;27;20079;-91
2023/07/08 08:15:38;;;;;;;0.88;0.88;;;25.00;99.90;;;;;;5094511;27;20043;-91
2023/07/08 08:18:06;;;;;;;0.30;0.30;;;24.00;99.90;;;;;;5106250;27;20040;-90
2023/07/08 08:20:32;;;;;;;0.55;0.55;;;23.80;99.90;;;;;;5103467;27;20133;-93
2023/07/08 08:22:58;;;;;;;0.77;0.77;;;24.80;99.90;;;;;;5098773;27;20150;-92
2023/07/08 08:25:24;;;;;;;0.60;0.60;;;25.10;99.90;;;;;;5108848;27;20043;-92
2023/07/08 08:27:52;;;;;;;0.30;0.30;;;25.10;99.90;;;;;;5114942;27;20042;-87
2023/07/08 08:30:18;;;;;;;0.30;0.30;;;24.70;99.90;;;;;;5112864;27;20083;-92
2023/07/08 08:32:43;;;;;;;0.38;0.38;;;25.30;99.90;;;;;;5098473;27;20063;-91
2023/07/08 08:35:09;;;;;;;0.30;0.30;;;25.70;99.90;;;;;;5094995;27;20058;-92
2023/07/08 08:37:35;;;;;;;0.30;0.30;;;25.60;99.90;;;;;;5094346;27;20043;-92
2023/07/08 08:40:04;;;;;;;0.35;0.35;;;26.20;99.90;;;;;;5092673;27;20107;-93
2023/07/08 08:42:40;;;;;;;0.30;0.30;;;26.40;99.90;;;;;;5084880;27;20047;-93
2023/07/08 08:45:11;;;;;;;0.57;0.40;;;25.80;99.90;;;;;;5092871;27;20051;-93
2023/07/08 08:47:41;;;;;;;0.68;0.68;;;25.80;99.90;;;;;;5117430;27;20058;-88
2023/07/08 08:50:28;;;;;;;0.30;0.30;;;25.90;99.90;;;;;;5100768;27;20483;-89
2023/07/08 08:52:55;;;;;;;0.30;0.30;;;25.60;99.90;;;;;;5091769;27;20050;-92
2023/07/08 08:55:25;;;;;;;0.30;0.30;;;26.20;99.90;;;;;;5096470;27;20092;-90
2023/07/08 08:58:17;;;;;;;0.30;0.30;;;25.90;99.90;;;;;;5109574;27;20039;-89
2023/07/08 09:01:00;;;;;;;0.30;0.30;;;26.00;99.90;;;;;;5104769;27;20039;-89
2023/07/08 09:04:03;;;;;;;0.35;0.35;;;26.60;99.90;;;;;;5091243;27;20043;-89
2023/07/08 09:06:34;;;;;;;0.30;0.30;;;27.10;99.90;;;;;;5109774;27;20047;-92
2023/07/08 09:09:07;;;;;;;0.30;0.30;;;26.50;99.90;;;;;;5095982;27;20111;-87
2023/07/08 09:11:42;;;;;;;0.30;0.30;;;27.20;99.90;;;;;;5092504;27;20051;-92
2023/07/08 09:14:29;;;;;;;0.30;0.30;;;26.80;99.90;;;;;;5108439;27;20462;-88
2023/07/08 09:17:17;;;;;;;0.30;0.30;;;27.50;99.90;;;;;;5090969;27;20061;-87
2023/07/08 09:20:17;;;;;;;0.30;0.30;;;27.20;99.90;;;;;;5098350;27;20052;-87
2023/07/08 09:22:45;;;;;;;0.30;0.30;;;28.30;99.90;;;;;;5107193;27;20043;-89
2023/07/08 09:25:32;;;;;;;0.30;0.30;;;27.80;99.90;;;;;;5101128;27;20067;-94
2023/07/08 09:27:58;;;;;;;0.30;0.30;;;27.90;99.90;;;;;;5106673;27;20082;-88
2023/07/08 09:30:26;;;;;;;0.30;0.30;;;28.10;99.90;;;;;;5108329;27;20588;-90
2023/07/08 09:32:54;;;;;;;0.30;0.30;;;27.30;98.90;;;;;;5094487;27;20054;-93
2023/07/08 09:35:37;;;;;;;0.40;0.40;;;27.90;99.90;;;;;;5111343;27;20039;-89
2023/07/08 09:38:14;;;;;;;0.43;0.40;;;28.60;99.90;;;;;;5103890;27;20066;-87
2023/07/08 09:40:49;;;;;;;0.30;0.30;;;28.60;99.90;;;;;;5113301;27;20711;-91
2023/07/08 09:43:14;;;;;;;0.30;0.30;;;28.50;99.90;;;;;;5094282;27;20515;-91
2023/07/08 09:45:46;;;;;;;0.30;0.30;;;28.10;99.60;;;;;;5118129;27;20058;-90
2023/07/08 09:48:36;;;;;;;0.30;0.30;;;28.80;99.90;;;;;;5104848;27;20043;-92
2023/07/08 09:51:03;;;;;;;0.30;0.30;;;29.00;99.30;;;;;;5085109;27;20050;-89
2023/07/08 09:53:33;;;;;;;0.30;0.30;;;29.30;98.00;;;;;;5094493;27;20131;-93
2023/07/08 09:56:01;;;;;;;0.30;0.30;;;29.60;98.20;;;;;;5106207;27;20480;-88
2023/07/08 09:58:37;;;;;;;0.30;0.30;;;29.60;98.40;;;;;;5089635;27;20043;-87
2023/07/08 10:01:13;;;;;;;0.30;0.30;;;29.80;98.90;;;;;;5107566;27;20130;-88
2023/07/08 10:03:38;;;;;;;0.30;0.30;;;29.20;98.00;;;;;;5107564;27;20134;-89
2023/07/08 10:06:18;;;;;;;0.30;0.30;;;30.00;99.80;;;;;;5111757;27;20051;-86
2023/07/08 10:08:44;;;;;;;0.30;0.30;;;30.20;99.90;;;;;;5088799;27;20043;-86
2023/07/08 10:11:17;;;;;;;0.30;0.30;;;30.10;97.00;;;;;;5103174;27;20044;-89
2023/07/08 10:13:47;;;;;;;0.30;0.30;;;30.20;96.30;;;;;;5107054;27;20506;-88
2023/07/08 10:16:31;;;;;;;0.30;0.30;;;30.80;96.40;;;;;;5105863;27;20051;-89
2023/07/08 10:18:58;;;;;;;;;;;30.80;96.00;;;;;;5105400;27;20042;-86
2023/07/08 10:21:44;;;;;;;0.30;0.30;;;31.10;96.60;;;;;;5085271;27;19930;-87
2023/07/08 10:24:12;;;;;;;0.30;0.30;;;30.80;96.00;;;;;;5104775;27;20503;-88
2023/07/08 10:26:39;;;;;;;0.30;0.30;;;30.30;95.20;;;;;;5110378;27;20045;-90
2023/07/08 10:29:26;;;;;;;0.30;0.30;;;30.80;94.60;;;;;;5107319;27;20047;-88
2023/07/08 10:32:11;;;;;;;0.30;0.30;;;30.70;95.60;;;;;;5114105;27;20059;-86
2023/07/08 10:34:51;;;;;;;0.30;0.30;;;31.00;93.90;;;;;;5113678;27;20039;-85
2023/07/08 10:37:58;;;;;;;0.30;0.30;;;31.20;95.30;;;;;;5101790;27;20040;-87
2023/07/08 10:40:58;;;;;;;0.30;0.30;;;30.00;93.70;;;;;;5105669;27;20100;-88
2023/07/08 10:43:42;;;;;;;0.30;0.30;;;30.00;93.90;;;;;;5105899;27;20100;-86
2023/07/08 10:46:32;;;;;;;0.30;0.30;;;31.00;94.10;;;;;;5107858;27;20054;-90
2023/07/08 10:49:26;;;;;;;0.30;0.30;;;31.40;94.40;;;;;;5097215;27;20120;-86
2023/07/08 10:52:23;;;;;;;0.20;0.20;;;31.30;94.10;;;;;;5106066;27;20114;-88
2023/07/08 10:55:20;;;;;;;0.20;0.20;;;31.60;93.50;;;;;;5105645;27;20509;-89
2023/07/08 10:58:09;;;;;;;0.20;0.20;;;31.00;93.00;;;;;;5095059;27;20051;-90
2023/07/08 11:01:18;;;;;;;0.30;0.30;;;31.30;93.10;;;;;;5104143;27;20050;-88
2023/07/08 11:04:13;;;;;;;0.20;0.20;;;32.00;93.80;;;;;;5062881;27;20051;-88
2023/07/08 11:06:51;;;;;;;0.30;0.30;;;30.60;92.40;;;;;;5063717;27;20055;-91
2023/07/08 11:09:27;;;;;;;0.30;0.30;;;30.60;93.20;;;;;;5085024;27;20404;-86
2023/07/08 11:12:26;;;;;;;0.22;0.22;;;31.30;92.10;;;;;;5106322;27;20052;-88
2023/07/08 11:15:16;;;;;;;0.30;0.30;;;30.60;91.70;;;;;;5085568;27;20078;-88
2023/07/08 11:17:50;;;;;;;0.30;0.30;;;30.50;91.80;;;;;;5102835;27;20407;-92
2023/07/08 11:20:27;;;;;;;0.30;0.30;;;30.70;91.40;;;;;;5090048;27;20461;-85
2023/07/08 11:23:04;;;;;;;0.30;0.30;;;31.60;93.00;;;;;;5104608;27;20038;-88
2023/07/08 11:25:31;;;;;;;0.30;0.30;;;30.80;90.40;;;;;;5106330;27;20031;-92
2023/07/08 11:28:02;;;;;;;0.28;0.28;;;31.30;92.10;;;;;;5094586;27;20086;-90
2023/07/08 11:30:34;;;;;;;0.28;0.28;;;31.30;91.10;;;;;;5110793;27;20411;-89
2023/07/08 11:33:10;;;;;;;0.28;0.28;;;31.90;91.50;;;;;;5103470;27;20106;-93
2023/07/08 11:35:42;;;;;;;0.25;0.25;;;31.20;90.90;;;;;;5101562;27;20116;-88
2023/07/08 11:38:19;;;;;;;0.20;0.20;;;32.10;91.70;;;;;;5093381;27;20100;-88
2023/07/08 11:40:53;;;;;;;0.30;0.30;;;32.40;91.40;;;;;;5080660;27;20564;-90
2023/07/08 11:43:21;;;;;;;0.30;0.30;;;32.90;91.90;;;;;;5097070;27;20043;-87
2023/07/08 11:45:50;;;;;;;0.20;0.20;;;32.10;89.70;;;;;;5106168;27;20040;-89
2023/07/08 11:48:18;;;;;;;0.30;0.30;;;32.40;90.50;;;;;;5099233;27;20036;-91
2023/07/08 11:50:48;;;;;;;0.20;0.20;;;32.60;91.70;;;;;;5104324;27;20066;-88
2023/07/08 11:53:29;;;;;;;0.20;0.20;;;32.90;90.30;;;;;;5100888;27;20054;-88
2023/07/08 11:56:01;;;;;;;0.30;0.30;;;31.80;88.60;;;;;;5103609;27;20046;-92
2023/07/08 11:58:31;;;;;;;0.20;0.20;;;31.60;87.50;;;;;;5086853;27;20103;-90
2023/07/08 12:01:39;;;;;;;0.30;0.30;;;32.40;88.30;;;;;;5105049;27;20054;-88
2023/07/08 12:04:42;;;;;;;0.30;0.30;;;32.20;88.00;;;;;;5110691;27;20107;-84
2023/07/08 12:07:08;;;;;;;0.20;0.20;;;31.80;88.10;;;;;;5066411;27;20043;-85
2023/07/08 12:09:44;;;;;;;0.30;0.30;;;32.80;88.00;;;;;;5108932;27;20048;-92
2023/07/08 12:12:24;;;;;;;0.20;0.20;;;32.70;88.30;;;;;;5099575;27;20059;-91
2023/07/08 12:14:53;;;;;;;0.20;0.20;;;31.50;83.70;;;;;;5101604;27;20039;-87
2023/07/08 12:17:22;;;;;;;0.20;0.20;;;32.70;89.50;;;;;;5088032;27;20122;-92
2023/07/08 12:19:51;;;;;;;0.30;0.30;;;32.40;87.40;;;;;;5090137;27;20049;-87
2023/07/08 12:22:18;;;;;;;0.28;0.28;;;32.60;85.80;;;;;;5087426;27;20047;-90
2023/07/08 12:24:44;;;;;;;0.22;0.22;;;33.00;87.30;;;;;;5091242;27;20074;-86
2023/07/08 12:27:10;;;;;;;0.20;0.20;;;32.60;82.50;;;;;;5102286;27;20095;-87
2023/07/08 12:29:37;;;;;;;0.30;0.30;;;32.50;80.70;;;;;;5087022;27;20051;-87
2023/07/08 12:32:03;;;;;;;0.20;0.20;;;33.10;81.10;;;;;;5090096;27;20043;-89
2023/07/08 12:34:29;;;;;;;0.20;0.20;;;33.00;83.60;;;;;;5106173;27;20062;-85
2023/07/08 12:37:00;;;;;;;0.30;0.30;;;32.90;78.90;;;;;;5092213;27;20039;-86
2023/07/08 12:39:26;;;;;;;0.30;0.30;;;32.80;80.50;;;;;;5099757;27;20666;-86
2023/07/08 12:41:52;;;;;;;0.40;0.40;;;32.70;80.00;;;;;;5103141;27;20054;-89
2023/07/08 12:44:21;;;;;;;0.40;0.40;;;32.40;80.70;;;;;;5102921;27;20144;-88
2023/07/08 12:46:49;;;;;;;0.30;0.30;;;32.40;78.80;;;;;;5107116;27;20126;-89
2023/07/08 12:49:19;;;;;;;0.20;0.20;;;32.80;81.70;;;;;;5093229;27;20576;-89
2023/07/08 12:51:46;;;;;;;0.20;0.20;;;32.30;81.90;;;;;;5103749;27;20051;-86
2023/07/08 12:54:12;;;;;;;0.30;0.30;;;32.20;80.70;;;;;;5122614;27;20396;-87
2023/07/08 12:56:42;;;;;;;0.30;0.30;;;32.60;76.80;;;;;;5085078;27;20631;-85
2023/07/08 12:59:08;;;;;;;0.30;0.30;;;33.00;82.00;;;;;;5106600;27;20531;-88
2023/07/08 13:01:35;;;;;;;0.20;0.20;;;33.30;80.60;;;;;;5109043;27;20047;-88
2023/07/08 13:04:11;;;;;;;0.30;0.30;;;33.40;80.20;;;;;;5086118;27;20530;-87
2023/07/08 13:06:39;;;;;;;0.28;0.28;;;33.00;80.80;;;;;;5101825;27;20036;-91